Time;durP1;ratioP1;P1;durP2;ratioP2;P2;SDS_P1;SDS_P2;PMS_P1;PMS_P2;Temp;Humidity;BMP_temperature;BMP_pressure;BME280_temperature;BME280_humidity;BME280_pressure;Samples;Min_cycle;Max_cycle;Signal;HPM_P1;HPM_P2
2021/05/05 00:00:42;;;;;;;1.33;0.77;;;10.70;99.90;;;;;;5094967;28;20208;-60
2021/05/05 00:03:08;;;;;;;0.93;0.40;;;10.80;99.90;;;;;;5094664;28;20224;-61
2021/05/05 00:05:34;;;;;;;4.87;0.60;;;10.80;99.90;;;;;;5094618;28;20200;-61
2021/05/05 00:08:00;;;;;;;1.50;0.97;;;10.80;99.90;;;;;;5094853;28;20489;-60
2021/05/05 00:10:27;;;;;;;1.63;0.67;;;10.80;99.90;;;;;;5094635;28;20648;-62
2021/05/05 00:12:53;;;;;;;2.40;0.87;;;10.80;99.90;;;;;;5094811;28;20220;-64
2021/05/05 00:15:22;;;;;;;3.13;0.63;;;10.80;99.90;;;;;;5094494;28;20228;-62
2021/05/05 00:17:49;;;;;;;4.40;1.20;;;10.70;99.90;;;;;;5094532;28;20204;-63
2021/05/05 00:20:16;;;;;;;2.67;0.87;;;10.60;99.90;;;;;;5094517;28;20699;-61
2021/05/05 00:22:42;;;;;;;2.73;0.90;;;10.70;99.90;;;;;;5094314;28;20239;-63
2021/05/05 00:25:10;;;;;;;3.00;0.80;;;10.70;99.90;;;;;;5094330;28;20205;-60
2021/05/05 00:27:36;;;;;;;3.60;1.10;;;10.80;99.90;;;;;;5094580;28;20208;-60
2021/05/05 00:30:06;;;;;;;2.67;0.90;;;10.70;99.90;;;;;;5094602;28;20211;-61
2021/05/05 00:32:32;;;;;;;1.70;0.80;;;10.80;99.90;;;;;;5094565;28;20228;-62
2021/05/05 00:34:59;;;;;;;2.63;1.10;;;10.70;99.90;;;;;;5094201;28;20220;-63
2021/05/05 00:37:26;;;;;;;2.13;0.60;;;10.70;99.90;;;;;;5094725;28;20212;-60
2021/05/05 00:39:53;;;;;;;3.73;0.90;;;10.60;99.90;;;;;;5095282;28;20341;-60
2021/05/05 00:42:20;;;;;;;2.27;0.80;;;10.60;99.90;;;;;;5094914;28;20256;-60
2021/05/05 00:44:46;;;;;;;3.77;1.17;;;10.50;99.90;;;;;;5094275;28;20290;-63
2021/05/05 00:47:13;;;;;;;2.40;0.80;;;10.50;99.90;;;;;;5094295;28;20200;-62
2021/05/05 00:49:39;;;;;;;3.57;0.70;;;10.50;99.90;;;;;;5093870;28;20205;-61
2021/05/05 00:52:06;;;;;;;3.03;0.70;;;10.50;99.90;;;;;;5093957;28;20225;-61
2021/05/05 00:54:32;;;;;;;1.53;0.67;;;10.60;99.90;;;;;;5094197;28;20220;-60
2021/05/05 00:56:59;;;;;;;3.43;0.90;;;10.60;99.90;;;;;;5094399;28;20211;-62
2021/05/05 00:59:26;;;;;;;3.33;0.70;;;10.60;99.90;;;;;;5094000;28;20208;-62
2021/05/05 01:01:53;;;;;;;0.70;0.53;;;10.60;99.90;;;;;;5094091;28;20204;-60
2021/05/05 01:04:20;;;;;;;2.43;0.90;;;10.60;99.90;;;;;;5093703;28;20200;-61
2021/05/05 01:06:46;;;;;;;1.73;0.90;;;10.60;99.90;;;;;;5094100;28;20261;-60
2021/05/05 01:09:14;;;;;;;2.37;0.87;;;10.70;99.90;;;;;;5094606;28;20389;-60
2021/05/05 01:11:42;;;;;;;3.07;0.90;;;10.60;99.90;;;;;;5094171;28;20204;-60
2021/05/05 01:14:08;;;;;;;1.03;0.73;;;10.60;99.90;;;;;;5093650;28;20208;-61
2021/05/05 01:16:34;;;;;;;1.83;0.57;;;10.60;99.90;;;;;;5094463;28;20200;-61
2021/05/05 01:19:00;;;;;;;1.40;0.60;;;10.60;99.90;;;;;;5093955;28;20283;-61
2021/05/05 01:21:27;;;;;;;1.37;0.57;;;10.50;99.90;;;;;;5093953;28;20207;-61
2021/05/05 01:23:53;;;;;;;2.30;0.80;;;10.50;99.90;;;;;;5093221;28;20227;-61
2021/05/05 01:26:20;;;;;;;3.13;0.90;;;10.50;99.90;;;;;;5093338;28;20200;-61
2021/05/05 01:28:46;;;;;;;1.87;1.07;;;10.40;99.90;;;;;;5093336;28;20216;-61
2021/05/05 01:31:14;;;;;;;1.27;0.87;;;10.40;99.90;;;;;;5093139;28;20212;-62
2021/05/05 01:33:41;;;;;;;1.77;0.80;;;10.40;99.90;;;;;;5092966;28;20224;-61
2021/05/05 01:36:10;;;;;;;3.03;0.87;;;10.50;99.90;;;;;;5092927;28;20228;-61
2021/05/05 01:38:37;;;;;;;3.60;1.00;;;10.50;99.90;;;;;;5092793;28;20671;-60
2021/05/05 01:41:03;;;;;;;4.47;0.83;;;10.50;99.90;;;;;;5093075;28;20207;-60
2021/05/05 01:43:30;;;;;;;1.50;0.70;;;10.60;99.90;;;;;;5092551;28;20266;-61
2021/05/05 01:45:57;;;;;;;1.80;0.80;;;10.50;99.90;;;;;;5092783;28;20200;-60
2021/05/05 01:48:23;;;;;;;2.73;0.70;;;10.60;99.90;;;;;;5092863;28;20208;-61
2021/05/05 01:50:49;;;;;;;2.20;0.80;;;10.60;99.90;;;;;;5092807;28;20204;-61
2021/05/05 01:53:16;;;;;;;1.97;0.90;;;10.60;99.90;;;;;;5092679;28;20224;-61
2021/05/05 01:55:44;;;;;;;4.10;0.80;;;10.60;99.90;;;;;;5092256;28;20271;-61
2021/05/05 01:58:10;;;;;;;4.17;1.10;;;10.50;99.90;;;;;;5092334;28;20212;-61
2021/05/05 02:00:36;;;;;;;1.30;0.80;;;10.50;99.90;;;;;;5092380;28;20215;-61
2021/05/05 02:03:03;;;;;;;2.20;1.20;;;10.40;99.90;;;;;;5092401;28;20224;-61
2021/05/05 02:05:29;;;;;;;3.03;0.83;;;10.50;99.90;;;;;;5092391;28;20200;-60
2021/05/05 02:07:55;;;;;;;5.77;1.00;;;10.40;99.90;;;;;;5092211;28;20208;-59
2021/05/05 02:10:22;;;;;;;2.33;0.90;;;10.50;99.90;;;;;;5092423;28;20809;-61
2021/05/05 02:12:49;;;;;;;4.07;1.10;;;10.50;99.90;;;;;;5092477;28;20273;-63
2021/05/05 02:15:18;;;;;;;2.97;0.90;;;10.50;99.90;;;;;;5092825;28;20220;-61
2021/05/05 02:17:44;;;;;;;2.93;0.93;;;10.60;99.90;;;;;;5092624;28;20204;-61
2021/05/05 02:20:13;;;;;;;2.83;1.00;;;10.60;99.90;;;;;;5092249;28;20249;-62
2021/05/05 02:22:39;;;;;;;3.93;0.90;;;10.50;99.90;;;;;;5091913;28;20735;-61
2021/05/05 02:25:07;;;;;;;4.83;1.07;;;10.50;99.90;;;;;;5091969;28;20642;-61
2021/05/05 02:27:34;;;;;;;3.70;1.33;;;10.50;99.90;;;;;;5091977;28;20207;-61
2021/05/05 02:30:01;;;;;;;3.37;0.97;;;10.40;99.90;;;;;;5092115;28;20212;-61
2021/05/05 02:32:27;;;;;;;3.80;0.90;;;10.50;99.90;;;;;;5092013;28;20231;-61
2021/05/05 02:34:55;;;;;;;2.67;1.07;;;10.60;99.90;;;;;;5091730;28;20228;-61
2021/05/05 02:37:22;;;;;;;1.77;0.90;;;10.60;99.90;;;;;;5091779;28;20216;-61
2021/05/05 02:39:48;;;;;;;1.47;0.67;;;10.50;99.90;;;;;;5091593;28;20262;-61
2021/05/05 02:42:17;;;;;;;3.20;1.00;;;10.60;99.90;;;;;;5091596;28;20720;-61
2021/05/05 02:44:45;;;;;;;1.87;1.00;;;10.60;99.90;;;;;;5091387;28;20668;-61
2021/05/05 02:47:13;;;;;;;2.20;1.00;;;10.50;99.90;;;;;;5091735;28;20257;-61
2021/05/05 02:49:39;;;;;;;3.57;1.33;;;10.50;99.90;;;;;;5092144;28;20201;-61
2021/05/05 02:52:06;;;;;;;3.47;0.83;;;10.50;99.90;;;;;;5091606;28;20642;-61
2021/05/05 02:54:33;;;;;;;3.40;0.83;;;10.50;99.90;;;;;;5091171;28;20224;-61
2021/05/05 02:56:59;;;;;;;3.73;1.00;;;10.30;99.90;;;;;;5091614;28;20576;-61
2021/05/05 02:59:25;;;;;;;2.33;1.00;;;10.40;99.90;;;;;;5091438;28;20258;-61
2021/05/05 03:01:52;;;;;;;2.20;1.10;;;10.40;99.90;;;;;;5091477;28;20211;-60
2021/05/05 03:04:19;;;;;;;1.90;0.70;;;10.30;99.90;;;;;;5091388;28;20215;-63
2021/05/05 03:06:45;;;;;;;5.20;1.60;;;10.40;99.90;;;;;;5091216;28;20201;-61
2021/05/05 03:09:13;;;;;;;4.37;1.87;;;10.40;99.90;;;;;;5091039;28;20203;-60
2021/05/05 03:11:40;;;;;;;2.07;0.87;;;10.40;99.90;;;;;;5091413;28;20219;-61
2021/05/05 03:14:06;;;;;;;2.93;1.20;;;10.40;99.90;;;;;;5090855;28;20204;-61
2021/05/05 03:16:32;;;;;;;4.13;1.60;;;10.30;99.90;;;;;;5091159;28;20228;-61
2021/05/05 03:18:58;;;;;;;4.63;1.53;;;10.30;99.90;;;;;;5091107;28;20205;-61
2021/05/05 03:21:25;;;;;;;4.90;1.20;;;10.40;99.90;;;;;;5091329;28;20204;-61
2021/05/05 03:23:52;;;;;;;2.93;1.07;;;10.40;99.90;;;;;;5096421;28;20240;-63
2021/05/05 03:26:18;;;;;;;3.97;1.27;;;10.40;99.90;;;;;;5099452;28;20207;-62
2021/05/05 03:28:44;;;;;;;1.93;1.00;;;10.40;99.90;;;;;;5099308;28;20200;-62
2021/05/05 03:31:10;;;;;;;3.03;1.23;;;10.40;99.90;;;;;;5099140;28;20212;-62
2021/05/05 03:33:37;;;;;;;4.73;1.63;;;10.30;99.90;;;;;;5098607;28;20224;-63
2021/05/05 03:36:04;;;;;;;3.07;1.50;;;10.20;99.90;;;;;;5098996;28;20220;-63
2021/05/05 03:38:31;;;;;;;4.07;2.83;;;10.20;99.90;;;;;;5098242;28;20200;-63
2021/05/05 03:40:57;;;;;;;1.80;1.33;;;10.20;99.90;;;;;;5097721;28;20196;-63
2021/05/05 03:43:24;;;;;;;2.03;1.10;;;10.30;99.90;;;;;;5098273;28;20212;-61
2021/05/05 03:45:50;;;;;;;2.80;1.70;;;10.20;99.90;;;;;;5099091;28;20200;-63
2021/05/05 03:48:17;;;;;;;2.70;1.70;;;10.20;99.90;;;;;;5098234;28;20672;-61
2021/05/05 03:50:43;;;;;;;5.43;2.40;;;10.20;99.90;;;;;;5098789;28;20672;-62
2021/05/05 03:53:09;;;;;;;6.83;3.33;;;10.20;99.90;;;;;;5097135;28;20341;-63
2021/05/05 03:55:37;;;;;;;5.03;2.47;;;10.10;99.90;;;;;;5098345;28;20224;-61
2021/05/05 03:58:03;;;;;;;2.50;1.67;;;10.10;99.90;;;;;;5097868;28;20311;-63
2021/05/05 04:00:29;;;;;;;2.77;1.50;;;10.20;99.90;;;;;;5097797;28;20265;-62
2021/05/05 04:02:55;;;;;;;2.67;1.10;;;10.00;99.90;;;;;;5098245;28;20365;-62
2021/05/05 04:05:21;;;;;;;2.50;1.20;;;10.00;99.90;;;;;;5098163;28;20212;-63
2021/05/05 04:07:48;;;;;;;4.20;1.47;;;9.90;99.90;;;;;;5098061;28;20204;-63
2021/05/05 04:10:14;;;;;;;2.87;1.00;;;10.00;99.90;;;;;;5098523;28;20200;-63
2021/05/05 04:12:41;;;;;;;2.47;1.63;;;10.00;99.90;;;;;;5097209;28;20224;-62
2021/05/05 04:15:09;;;;;;;3.43;1.50;;;10.00;99.90;;;;;;5098042;28;20216;-62
2021/05/05 04:17:35;;;;;;;2.10;1.00;;;10.00;99.90;;;;;;5097947;28;20205;-62
2021/05/05 04:20:01;;;;;;;4.13;1.67;;;10.00;99.90;;;;;;5098644;28;20415;-62
2021/05/05 04:22:28;;;;;;;4.03;1.30;;;10.00;99.90;;;;;;5098477;28;20261;-62
2021/05/05 04:24:55;;;;;;;2.73;1.20;;;10.00;99.90;;;;;;5098395;28;20200;-61
2021/05/05 04:27:21;;;;;;;4.40;1.33;;;10.00;99.90;;;;;;5101509;28;20632;-62
2021/05/05 04:29:48;;;;;;;3.73;1.40;;;10.00;99.90;;;;;;5101426;28;20204;-63
2021/05/05 04:32:15;;;;;;;2.97;1.40;;;10.00;99.90;;;;;;5100641;28;20750;-62
2021/05/05 04:34:42;;;;;;;2.63;0.90;;;9.90;99.90;;;;;;5101076;28;20232;-62
2021/05/05 04:37:08;;;;;;;3.53;1.27;;;9.90;99.90;;;;;;5102124;28;20672;-63
2021/05/05 04:39:35;;;;;;;5.30;1.40;;;9.90;99.90;;;;;;5103707;28;20201;-63
2021/05/05 04:42:01;;;;;;;2.73;1.43;;;9.80;99.90;;;;;;5101745;28;20242;-63
2021/05/05 04:44:27;;;;;;;3.20;1.40;;;9.80;99.90;;;;;;5101641;28;20204;-61
2021/05/05 04:46:54;;;;;;;3.00;1.00;;;9.90;99.90;;;;;;5101709;28;20208;-62
2021/05/05 04:49:21;;;;;;;6.27;3.03;;;9.90;99.90;;;;;;5102130;28;20299;-61
2021/05/05 04:51:47;;;;;;;1.70;1.10;;;9.90;99.90;;;;;;5102542;28;20200;-61
2021/05/05 04:54:14;;;;;;;3.13;2.03;;;9.90;99.90;;;;;;5102548;28;20695;-60
2021/05/05 04:56:40;;;;;;;1.90;1.30;;;9.90;99.90;;;;;;5100614;28;20603;-62
2021/05/05 04:59:06;;;;;;;3.37;1.40;;;10.00;99.90;;;;;;5101625;28;20208;-63
2021/05/05 05:01:32;;;;;;;2.87;1.10;;;9.90;99.90;;;;;;5101912;28;20204;-63
2021/05/05 05:03:59;;;;;;;1.40;0.83;;;10.00;99.90;;;;;;5103120;28;20236;-63
2021/05/05 05:06:26;;;;;;;1.57;0.70;;;10.10;99.90;;;;;;5104286;28;20234;-62
2021/05/05 05:08:52;;;;;;;2.70;1.23;;;10.10;99.90;;;;;;5101242;28;20234;-63
2021/05/05 05:11:18;;;;;;;4.17;1.77;;;10.00;99.90;;;;;;5101213;28;20208;-62
2021/05/05 05:13:44;;;;;;;3.70;1.10;;;10.00;99.90;;;;;;5100781;28;20232;-62
2021/05/05 05:16:11;;;;;;;2.00;1.30;;;10.20;99.90;;;;;;5099670;28;20224;-62
2021/05/05 05:18:37;;;;;;;2.87;1.00;;;10.20;99.90;;;;;;5099018;28;20257;-63
2021/05/05 05:21:05;;;;;;;2.47;1.30;;;10.20;99.90;;;;;;5098957;28;20201;-62
2021/05/05 05:23:33;;;;;;;4.40;1.60;;;10.30;99.90;;;;;;5096905;28;20242;-61
2021/05/05 05:25:59;;;;;;;2.67;1.20;;;10.40;99.90;;;;;;5095527;28;20664;-62
2021/05/05 05:28:27;;;;;;;2.63;1.20;;;10.40;99.90;;;;;;5096504;28;20217;-61
2021/05/05 05:30:53;;;;;;;3.53;1.57;;;10.50;99.90;;;;;;5098058;28;20663;-61
2021/05/05 05:33:20;;;;;;;3.80;1.50;;;10.40;99.90;;;;;;5100625;28;20236;-62
2021/05/05 05:35:46;;;;;;;4.00;1.37;;;10.40;99.90;;;;;;5099095;28;20235;-62
2021/05/05 05:38:13;;;;;;;4.10;1.60;;;10.50;99.90;;;;;;5099019;28;20648;-62
2021/05/05 05:40:40;;;;;;;4.20;1.20;;;10.60;99.90;;;;;;5100232;28;20201;-63
2021/05/05 05:43:06;;;;;;;2.63;1.20;;;10.60;99.90;;;;;;5099479;28;20605;-62
2021/05/05 05:45:33;;;;;;;4.13;1.70;;;10.70;99.90;;;;;;5099805;28;20200;-63
2021/05/05 05:47:59;;;;;;;4.97;1.37;;;10.80;99.90;;;;;;5100545;28;20206;-62
2021/05/05 05:50:26;;;;;;;2.73;0.97;;;11.00;99.90;;;;;;5100339;28;20230;-63
2021/05/05 05:52:52;;;;;;;5.00;1.30;;;11.20;99.90;;;;;;5100909;28;20232;-62
2021/05/05 05:55:20;;;;;;;4.57;1.43;;;11.40;99.90;;;;;;5100634;28;20220;-61
2021/05/05 05:57:48;;;;;;;3.23;1.43;;;13.00;99.90;;;;;;5100019;28;20204;-60
2021/05/05 06:00:16;;;;;;;2.87;1.00;;;11.60;99.90;;;;;;5099616;28;20267;-62
2021/05/05 06:02:43;;;;;;;3.30;1.00;;;11.60;99.90;;;;;;5099878;28;20216;-62
2021/05/05 06:05:10;;;;;;;2.80;1.00;;;11.80;99.90;;;;;;5099722;28;20201;-62
2021/05/05 06:07:37;;;;;;;4.17;1.43;;;11.70;99.90;;;;;;5099091;28;20204;-63
2021/05/05 06:10:05;;;;;;;3.10;1.13;;;11.60;99.90;;;;;;5098702;28;20204;-62
2021/05/05 06:12:32;;;;;;;2.43;0.80;;;11.40;99.90;;;;;;5099298;28;20228;-62
2021/05/05 06:14:59;;;;;;;4.40;1.13;;;11.50;99.90;;;;;;5098366;28;20228;-62
2021/05/05 06:17:25;;;;;;;1.73;0.70;;;11.60;99.90;;;;;;5098057;28;20207;-61
2021/05/05 06:19:51;;;;;;;1.23;0.60;;;13.10;99.90;;;;;;5098523;28;20204;-62
2021/05/05 06:22:18;;;;;;;1.73;0.70;;;11.90;99.90;;;;;;5097201;28;20258;-60
2021/05/05 06:24:45;;;;;;;3.10;0.60;;;11.90;99.90;;;;;;5097162;28;20216;-62
2021/05/05 06:27:12;;;;;;;2.33;0.83;;;12.10;99.90;;;;;;5096461;28;20619;-62
2021/05/05 06:29:39;;;;;;;4.20;1.20;;;12.10;99.90;;;;;;5097369;28;20226;-62
2021/05/05 06:32:06;;;;;;;3.93;0.87;;;12.40;99.90;;;;;;5097824;28;20221;-62
2021/05/05 06:34:32;;;;;;;2.10;1.10;;;12.30;99.90;;;;;;5096916;28;20211;-61
2021/05/05 06:36:58;;;;;;;1.43;0.90;;;12.70;99.90;;;;;;5097664;28;20335;-61
2021/05/05 06:39:25;;;;;;;3.37;1.40;;;13.70;99.90;;;;;;5097250;28;20204;-62
2021/05/05 06:41:51;;;;;;;2.37;0.93;;;15.80;99.90;;;;;;5096971;28;20207;-62
2021/05/05 06:44:17;;;;;;;3.60;1.07;;;17.60;96.90;;;;;;5095684;28;20667;-62
2021/05/05 06:46:44;;;;;;;3.90;1.17;;;19.70;92.90;;;;;;5095955;28;20200;-62
2021/05/05 06:49:11;;;;;;;3.05;1.00;;;21.30;86.80;;;;;;5094665;28;20215;-62
2021/05/05 06:51:37;;;;;;;3.10;1.02;;;22.30;78.20;;;;;;5096481;28;20208;-61
2021/05/05 06:54:04;;;;;;;3.45;1.33;;;22.10;75.40;;;;;;5097486;28;20197;-62
2021/05/05 06:56:30;;;;;;;1.80;1.20;;;22.40;74.80;;;;;;5096673;28;20231;-61
2021/05/05 06:58:57;;;;;;;4.43;1.13;;;21.90;73.00;;;;;;5096726;28;20212;-61
2021/05/05 07:01:23;;;;;;;3.75;1.35;;;21.20;72.70;;;;;;5097518;28;20484;-62
2021/05/05 07:03:50;;;;;;;3.53;1.50;;;20.50;72.90;;;;;;5097652;28;20220;-60
2021/05/05 07:06:16;;;;;;;6.57;1.57;;;19.50;72.60;;;;;;5099266;28;20207;-62
2021/05/05 07:08:42;;;;;;;4.03;1.87;;;18.50;76.80;;;;;;5099230;28;20201;-63
2021/05/05 07:11:09;;;;;;;8.23;1.80;;;17.60;78.40;;;;;;5100501;28;20225;-63
2021/05/05 07:13:35;;;;;;;4.30;1.60;;;16.80;81.40;;;;;;5100181;28;20228;-62
2021/05/05 07:16:02;;;;;;;4.70;1.83;;;16.10;83.30;;;;;;5099185;28;20347;-61
2021/05/05 07:18:28;;;;;;;3.00;1.23;;;15.40;84.60;;;;;;5099363;28;20211;-62
2021/05/05 07:20:58;;;;;;;5.33;1.80;;;15.20;86.00;;;;;;5102765;28;20211;-63
2021/05/05 07:23:24;;;;;;;7.13;1.50;;;15.00;87.30;;;;;;5100162;28;20240;-62
2021/05/05 07:25:50;;;;;;;5.70;1.50;;;15.10;88.90;;;;;;5099013;28;20200;-63
2021/05/05 07:28:17;;;;;;;7.57;1.60;;;15.60;88.50;;;;;;5100080;28;20214;-63
2021/05/05 07:30:43;;;;;;;3.47;1.60;;;16.00;86.10;;;;;;5101389;28;20199;-64
2021/05/05 07:33:11;;;;;;;6.90;1.50;;;16.10;81.70;;;;;;5101277;28;20230;-64
2021/05/05 07:35:37;;;;;;;6.33;1.70;;;15.60;78.30;;;;;;5095671;28;20220;-61
2021/05/05 07:38:18;;;;;;;3.50;1.10;;;15.40;80.30;;;;;;5092230;28;20200;-61
2021/05/05 07:46:16;;;;;;;5.27;1.90;;;15.30;77.20;;;;;;5092134;28;20222;-59
2021/05/05 07:48:48;;;;;;;4.73;2.13;;;17.50;72.40;;;;;;5092997;28;20212;-58
2021/05/05 07:51:14;;;;;;;3.00;1.00;;;19.70;64.50;;;;;;5093859;28;20204;-59
2021/05/05 07:53:42;;;;;;;3.72;1.30;;;21.20;58.50;;;;;;5094226;28;20641;-59
2021/05/05 07:56:08;;;;;;;4.85;1.30;;;22.90;54.50;;;;;;5093525;28;20599;-56
2021/05/05 07:58:34;;;;;;;4.60;1.30;;;24.20;50.50;;;;;;5092478;28;20204;-58
2021/05/05 08:01:01;;;;;;;4.20;1.40;;;25.60;49.00;;;;;;5094905;28;20204;-58
2021/05/05 08:03:27;;;;;;;7.15;1.50;;;25.30;44.90;;;;;;5095106;28;20720;-59
2021/05/05 08:05:54;;;;;;;6.10;1.35;;;25.20;45.00;;;;;;5095714;28;20208;-57
2021/05/05 08:08:20;;;;;;;5.68;1.42;;;24.90;44.40;;;;;;5096448;28;20661;-60
2021/05/05 08:10:47;;;;;;;5.57;2.03;;;23.50;46.70;;;;;;5095795;28;20688;-58
2021/05/05 08:13:13;;;;;;;5.80;1.40;;;21.70;48.40;;;;;;5096069;28;20231;-58
2021/05/05 08:15:40;;;;;;;4.80;1.65;;;20.10;50.30;;;;;;5096621;28;20231;-58
2021/05/05 08:18:07;;;;;;;4.03;1.48;;;18.50;53.40;;;;;;5097515;28;20249;-58
2021/05/05 08:20:34;;;;;;;4.05;1.38;;;19.00;54.90;;;;;;5096503;28;20229;-59
2021/05/05 08:23:02;;;;;;;4.97;2.40;;;20.20;52.20;;;;;;5095045;28;20621;-57
2021/05/05 08:25:28;;;;;;;3.80;1.55;;;20.40;52.60;;;;;;5094635;28;20235;-61
2021/05/05 08:27:56;;;;;;;2.97;1.40;;;20.60;50.40;;;;;;5094819;28;20207;-56
2021/05/05 08:30:22;;;;;;;4.80;1.50;;;19.80;50.00;;;;;;5095200;28;20257;-58
2021/05/05 08:32:49;;;;;;;2.60;1.20;;;18.90;50.50;;;;;;5095353;28;20224;-58
2021/05/05 08:35:15;;;;;;;3.27;1.40;;;18.30;54.20;;;;;;5094862;28;20232;-57
2021/05/05 08:37:41;;;;;;;4.63;1.73;;;17.60;55.50;;;;;;5095110;28;20261;-57
2021/05/05 08:40:10;;;;;;;4.97;1.40;;;16.90;54.30;;;;;;5095062;28;20208;-57
2021/05/05 08:42:38;;;;;;;3.73;1.40;;;16.30;54.80;;;;;;5094365;28;20605;-58
2021/05/05 08:45:11;;;;;;;6.63;1.50;;;15.60;56.60;;;;;;5094721;28;20204;-58
2021/05/05 08:47:38;;;;;;;4.20;1.50;;;15.10;58.80;;;;;;5095190;28;20611;-58
2021/05/05 08:50:06;;;;;;;4.67;1.27;;;14.90;58.60;;;;;;5095379;28;20207;-60
2021/05/05 08:52:32;;;;;;;4.97;1.40;;;14.80;58.60;;;;;;5094730;28;20257;-61
2021/05/05 08:54:59;;;;;;;4.07;1.30;;;14.70;59.90;;;;;;5095144;28;20268;-61
2021/05/05 08:57:25;;;;;;;4.30;1.70;;;14.40;58.30;;;;;;5095356;28;20200;-60
2021/05/05 08:59:51;;;;;;;1.93;1.10;;;14.30;58.10;;;;;;5094996;28;20694;-61
2021/05/05 09:02:18;;;;;;;5.23;1.20;;;14.20;58.30;;;;;;5095767;28;20231;-59
2021/05/05 09:04:55;;;;;;;3.03;1.10;;;14.30;59.60;;;;;;5094924;28;20586;-60
2021/05/05 09:07:29;;;;;;;3.87;1.20;;;14.70;58.30;;;;;;5095451;28;20207;-60
2021/05/05 09:09:59;;;;;;;3.40;1.30;;;14.90;57.00;;;;;;5095625;28;20188;-59
2021/05/05 09:12:25;;;;;;;4.43;1.70;;;15.00;57.00;;;;;;5094367;28;20224;-59
2021/05/05 09:14:57;;;;;;;5.57;1.33;;;14.90;58.60;;;;;;5094860;28;20591;-59
2021/05/05 09:17:27;;;;;;;4.43;1.40;;;15.10;58.90;;;;;;5095220;28;20258;-59
2021/05/05 09:20:13;;;;;;;2.83;1.30;;;15.30;59.00;;;;;;5095127;28;20208;-60
2021/05/05 09:22:41;;;;;;;4.03;1.30;;;15.30;58.90;;;;;;5109140;22;20601;-59
2021/05/05 09:25:10;;;;;;;4.13;1.40;;;15.00;58.90;;;;;;5093418;28;20231;-58
2021/05/05 09:27:36;;;;;;;3.87;1.63;;;14.60;57.80;;;;;;5093375;28;20247;-59
2021/05/05 09:30:05;;;;;;;2.97;1.20;;;14.40;58.20;;;;;;5093142;28;20204;-58
2021/05/05 09:32:47;;;;;;;4.07;1.80;;;14.30;56.70;;;;;;5092974;28;20593;-57
2021/05/05 09:35:14;;;;;;;3.70;1.40;;;14.10;57.40;;;;;;5093110;28;20228;-59
2021/05/05 09:37:40;;;;;;;5.03;2.30;;;14.20;57.30;;;;;;5093280;28;20208;-59
2021/05/05 09:40:10;;;;;;;4.77;1.87;;;14.50;57.30;;;;;;5093060;28;20212;-59
2021/05/05 09:42:37;;;;;;;3.87;1.30;;;14.90;56.50;;;;;;5092702;28;20239;-58
2021/05/05 09:45:06;;;;;;;3.30;1.17;;;14.90;57.30;;;;;;5092565;28;20259;-56
2021/05/05 09:47:54;;;;;;;5.30;1.60;;;14.90;57.90;;;;;;5092764;28;20205;-56
2021/05/05 09:50:25;;;;;;;2.37;1.13;;;14.60;56.40;;;;;;5092856;28;20204;-58
2021/05/05 09:53:11;;;;;;;3.93;1.63;;;14.40;58.20;;;;;;5092603;28;20269;-56
2021/05/05 09:55:38;;;;;;;3.20;1.80;;;14.10;59.50;;;;;;5092151;28;20593;-56
2021/05/05 09:58:22;;;;;;;9.37;2.50;;;14.10;60.70;;;;;;5092317;28;20208;-56
2021/05/05 10:01:09;;;;;;;4.70;1.67;;;14.20;59.40;;;;;;5092852;28;20212;-58
2021/05/05 10:03:37;;;;;;;4.03;1.50;;;14.20;58.00;;;;;;5093258;28;20310;-57
2021/05/05 10:06:23;;;;;;;5.17;1.77;;;14.20;57.50;;;;;;5092426;28;20207;-58
2021/05/05 10:08:51;;;;;;;7.73;1.40;;;14.30;57.50;;;;;;5092365;28;20211;-58
2021/05/05 10:11:20;;;;;;;5.93;1.57;;;14.50;56.80;;;;;;5092448;28;20208;-58
2021/05/05 10:13:52;;;;;;;4.13;1.30;;;14.70;55.10;;;;;;5091709;28;20244;-59
2021/05/05 10:16:20;;;;;;;3.80;1.20;;;14.80;55.20;;;;;;5092203;28;20224;-57
2021/05/05 10:18:48;;;;;;;2.60;1.40;;;14.90;54.70;;;;;;5092262;28;20568;-56
2021/05/05 10:21:18;;;;;;;2.70;1.40;;;15.00;54.00;;;;;;5092604;28;20265;-59
2021/05/05 10:23:45;;;;;;;4.30;1.40;;;14.90;54.60;;;;;;5091787;28;20654;-58
2021/05/05 10:26:11;;;;;;;3.77;1.20;;;15.00;54.50;;;;;;5092167;28;20207;-60
2021/05/05 10:28:39;;;;;;;5.17;1.30;;;15.30;52.20;;;;;;5091737;28;20285;-60
2021/05/05 10:31:08;;;;;;;3.70;1.17;;;15.60;52.30;;;;;;5091526;28;20233;-59
2021/05/05 10:33:39;;;;;;;3.43;1.10;;;15.80;51.90;;;;;;5092386;28;20236;-57
2021/05/05 10:36:28;;;;;;;3.60;1.20;;;16.10;52.20;;;;;;5092093;28;20224;-63
2021/05/05 10:38:54;;;;;;;5.17;1.40;;;16.60;51.10;;;;;;5091600;28;20201;-59
2021/05/05 10:41:22;;;;;;;4.20;1.10;;;16.90;50.20;;;;;;5091632;28;20280;-59
2021/05/05 10:43:49;;;;;;;3.83;1.37;;;17.20;50.70;;;;;;5091871;28;20256;-60
2021/05/05 10:46:27;;;;;;;2.47;0.90;;;17.30;50.60;;;;;;5092233;28;20200;-59
2021/05/05 10:49:05;;;;;;;2.33;1.13;;;17.30;49.40;;;;;;5074189;28;20201;-59
2021/05/05 10:52:01;;;;;;;3.33;1.20;;;17.10;48.80;;;;;;5071282;28;20288;-58
2021/05/05 10:54:50;;;;;;;2.83;0.93;;;16.50;49.40;;;;;;5071452;28;20284;-60
2021/05/05 10:57:16;;;;;;;2.53;0.40;;;15.90;50.70;;;;;;5071363;28;20228;-58
2021/05/05 11:00:10;;;;;;;2.63;0.60;;;14.80;71.20;;;;;;5071274;28;20240;-59
2021/05/05 11:02:58;;;;;;;1.17;0.73;;;13.20;81.50;;;;;;5071470;28;20239;-62
2021/05/05 11:05:34;;;;;;;1.60;0.73;;;11.90;88.80;;;;;;5071181;28;20287;-61
2021/05/05 11:08:05;;;;;;;2.30;0.77;;;11.10;92.20;;;;;;5071468;28;20216;-59
2021/05/05 11:10:51;;;;;;;1.00;0.63;;;10.40;95.10;;;;;;5071320;28;20254;-59
2021/05/05 11:13:40;;;;;;;3.70;1.17;;;9.90;97.30;;;;;;5071414;28;20225;-60
2021/05/05 11:16:06;;;;;;;1.90;0.97;;;9.60;99.90;;;;;;5088778;28;20228;-60
2021/05/05 11:18:47;;;;;;;2.30;1.07;;;9.40;99.90;;;;;;5073173;28;20208;-58
2021/05/05 11:21:39;;;;;;;3.33;1.23;;;9.30;99.90;;;;;;5071003;28;20683;-59
2021/05/05 11:24:27;;;;;;;2.03;0.80;;;9.20;99.90;;;;;;5070379;28;20244;-58
2021/05/05 11:26:54;;;;;;;2.33;1.10;;;8.90;99.90;;;;;;5070885;28;20680;-58
2021/05/05 11:29:30;;;;;;;1.63;0.80;;;9.00;99.90;;;;;;5070116;28;20215;-59
2021/05/05 11:32:04;;;;;;;4.67;1.53;;;9.20;99.90;;;;;;5070234;28;20215;-60
2021/05/05 11:34:32;;;;;;;1.23;0.80;;;9.50;99.90;;;;;;5072361;28;20679;-57
2021/05/05 11:37:10;;;;;;;1.73;0.97;;;9.80;99.90;;;;;;5077603;28;20443;-58
2021/05/05 11:39:40;;;;;;;0.90;0.67;;;10.20;99.90;;;;;;5077377;28;20208;-61
2021/05/05 11:42:10;;;;;;;3.17;0.97;;;10.60;99.90;;;;;;5077135;28;20694;-58
2021/05/05 11:44:38;;;;;;;1.63;0.90;;;11.10;99.90;;;;;;5076209;28;20648;-59
2021/05/05 11:47:06;;;;;;;2.43;1.10;;;11.50;99.70;;;;;;5076429;28;20205;-59
2021/05/05 11:49:34;;;;;;;1.30;0.80;;;11.80;99.90;;;;;;5076891;28;20212;-61
2021/05/05 11:52:19;;;;;;;2.90;1.10;;;12.00;99.70;;;;;;5075927;28;20204;-59
2021/05/05 11:54:48;;;;;;;1.93;1.20;;;12.00;99.30;;;;;;5076652;28;20208;-60
2021/05/05 11:57:14;;;;;;;1.63;0.70;;;12.10;99.20;;;;;;5076534;28;20225;-61
2021/05/05 11:59:40;;;;;;;2.80;1.20;;;12.20;99.80;;;;;;5076663;28;20291;-60
2021/05/05 12:02:07;;;;;;;2.47;1.30;;;12.20;99.90;;;;;;5076279;28;20544;-60
2021/05/05 12:04:41;;;;;;;2.50;1.07;;;12.30;99.90;;;;;;5076976;28;20205;-62
2021/05/05 12:07:10;;;;;;;2.33;0.93;;;12.60;97.70;;;;;;5077469;28;20283;-58
2021/05/05 12:09:38;;;;;;;2.87;1.23;;;12.90;96.40;;;;;;5076908;28;20704;-60
2021/05/05 12:12:22;;;;;;;1.67;0.80;;;13.00;95.10;;;;;;5076953;28;20207;-60
2021/05/05 12:14:50;;;;;;;2.33;1.23;;;13.10;94.20;;;;;;5076911;28;20216;-60
2021/05/05 12:17:24;;;;;;;2.33;1.13;;;13.20;93.60;;;;;;5076449;28;20235;-59
2021/05/05 12:19:55;;;;;;;3.07;1.50;;;13.50;93.20;;;;;;5076943;28;20291;-59
2021/05/05 12:22:21;;;;;;;3.57;1.10;;;13.90;91.50;;;;;;5076796;28;20240;-61
2021/05/05 12:25:16;;;;;;;1.47;0.93;;;14.40;90.60;;;;;;5076720;28;20189;-59
2021/05/05 12:28:10;;;;;;;1.80;1.00;;;14.90;87.50;;;;;;5029395;28;20470;-60
2021/05/05 12:30:45;;;;;;;3.87;1.73;;;15.20;85.70;;;;;;5076353;28;20205;-61
2021/05/05 12:33:12;;;;;;;2.70;1.30;;;15.50;85.20;;;;;;5076228;28;20793;-59
2021/05/05 12:35:39;;;;;;;4.27;2.37;;;15.50;81.90;;;;;;5076235;28;20263;-59
2021/05/05 12:38:08;;;;;;;2.70;1.07;;;15.50;80.60;;;;;;5076519;28;20722;-61
2021/05/05 12:40:34;;;;;;;3.42;1.20;;;15.50;78.20;;;;;;5076276;28;20469;-61
2021/05/05 12:43:22;;;;;;;1.23;1.07;;;15.50;78.40;;;;;;5075785;28;20712;-63
2021/05/05 12:45:51;;;;;;;2.80;1.20;;;15.30;78.50;;;;;;5074626;28;20284;-63
2021/05/05 12:48:22;;;;;;;2.87;1.07;;;15.10;78.70;;;;;;5072643;28;20205;-62
2021/05/05 12:50:48;;;;;;;1.60;0.70;;;15.10;79.70;;;;;;5073040;28;20213;-62
2021/05/05 12:53:15;;;;;;;2.80;1.03;;;15.20;78.20;;;;;;5073159;28;20225;-63
2021/05/05 12:55:42;;;;;;;3.77;1.30;;;15.50;77.20;;;;;;5072679;28;20634;-64
2021/05/05 12:58:13;;;;;;;1.90;1.30;;;15.70;75.90;;;;;;5072575;28;20292;-62
2021/05/05 13:00:43;;;;;;;3.13;1.90;;;15.80;73.30;;;;;;5073039;28;20211;-62